TimeCDT,TemperatureF,Dew PointF,Humidity,Sea Level PressureIn,VisibilityMPH,Wind Direction,Wind SpeedMPH,Gust SpeedMPH,PrecipitationIn,Events,Conditions,WindDirDegrees,DateUTC
12:54 AM,37.9,35.1,89,30.04,10.0,Calm,Calm,-,N/A,,Clear,0,2013-03-12 05:54:00
1:54 AM,37.0,35.1,93,30.06,10.0,Calm,Calm,-,N/A,,Clear,0,2013-03-12 06:54:00
2:54 AM,36.0,34.0,93,30.06,10.0,Calm,Calm,-,N/A,,Clear,0,2013-03-12 07:54:00
3:54 AM,35.1,33.1,92,30.05,10.0,Calm,Calm,-,N/A,,Clear,0,2013-03-12 08:54:00
4:54 AM,35.1,33.1,92,30.06,10.0,Calm,Calm,-,N/A,,Clear,0,2013-03-12 09:54:00
5:54 AM,35.1,32.0,89,30.08,10.0,Calm,Calm,-,N/A,,Clear,0,2013-03-12 10:54:00
6:54 AM,34.0,30.9,89,30.11,10.0,Calm,Calm,-,N/A,,Clear,0,2013-03-12 11:54:00
7:54 AM,34.0,32.0,92,30.13,9.0,Calm,Calm,-,N/A,,Clear,0,2013-03-12 12:54:00
8:54 AM,43.0,37.9,82,30.15,10.0,Calm,Calm,-,N/A,,Clear,0,2013-03-12 13:54:00
9:54 AM,50.0,37.0,61,30.17,10.0,NNW,6.9,-,N/A,,Clear,340,2013-03-12 14:54:00
10:54 AM,53.1,33.1,47,30.18,10.0,NNE,6.9,-,N/A,,Clear,30,2013-03-12 15:54:00
11:54 AM,55.9,33.1,42,30.20,10.0,North,12.7,-,N/A,,Clear,360,2013-03-12 16:54:00
12:54 PM,57.9,30.9,36,30.19,10.0,North,8.1,16.1,N/A,,Clear,360,2013-03-12 17:54:00
1:54 PM,60.1,28.9,31,30.17,10.0,NNW,8.1,-,N/A,,Clear,330,2013-03-12 18:54:00
2:54 PM,62.1,30.0,30,30.15,10.0,NNW,12.7,18.4,N/A,,Clear,340,2013-03-12 19:54:00
3:54 PM,62.1,28.0,28,30.13,10.0,North,6.9,-,N/A,,Clear,350,2013-03-12 20:54:00
4:54 PM,62.1,28.9,29,30.14,10.0,North,11.5,-,N/A,,Clear,350,2013-03-12 21:54:00
5:54 PM,61.0,28.9,30,30.14,10.0,NNW,10.4,-,N/A,,Clear,330,2013-03-12 22:54:00
6:54 PM,55.9,32.0,40,30.16,10.0,North,6.9,-,N/A,,Clear,350,2013-03-12 23:54:00
7:54 PM,50.0,35.1,57,30.18,10.0,North,3.5,-,N/A,,Clear,350,2013-03-13 00:54:00
8:54 PM,46.9,36.0,66,30.20,10.0,Calm,Calm,-,N/A,,Clear,0,2013-03-13 01:54:00
9:54 PM,45.0,36.0,71,30.22,10.0,Calm,Calm,-,N/A,,Clear,0,2013-03-13 02:54:00
10:54 PM,44.1,36.0,73,30.23,10.0,Calm,Calm,-,N/A,,Clear,0,2013-03-13 03:54:00
11:54 PM,41.0,35.1,79,30.23,10.0,Calm,Calm,-,N/A,,Clear,0,2013-03-13 04:54:00